Time;durP1;ratioP1;P1;durP2;ratioP2;P2;SDS_P1;SDS_P2;PMS_P1;PMS_P2;Temp;Humidity;BMP_temperature;BMP_pressure;BME280_temperature;BME280_humidity;BME280_pressure;Samples;Min_cycle;Max_cycle;Signal;HPM_P1;HPM_P2
2023/08/23 00:01:58;;;;;;;4.10;3.70;;;20.90;99.90;;;;;;5099420;28;20563;-67
2023/08/23 00:04:26;;;;;;;4.45;4.13;;;20.90;99.90;;;;;;5099149;28;20210;-66
2023/08/23 00:06:53;;;;;;;4.20;3.83;;;20.90;99.90;;;;;;5085065;28;20212;-66
2023/08/23 00:09:21;;;;;;;4.30;4.00;;;20.90;99.90;;;;;;5085846;28;20230;-65
2023/08/23 00:11:48;;;;;;;4.75;3.88;;;20.90;99.90;;;;;;5071164;28;20215;-65
2023/08/23 00:14:15;;;;;;;5.68;3.70;;;20.80;99.90;;;;;;5065076;28;20702;-66
2023/08/23 00:16:42;;;;;;;4.40;3.83;;;20.80;99.90;;;;;;5064817;28;20294;-65
2023/08/23 00:19:09;;;;;;;4.65;3.60;;;20.80;99.90;;;;;;5065006;28;20203;-67
2023/08/23 00:21:36;;;;;;;4.90;3.63;;;20.80;99.90;;;;;;5065025;28;20203;-66
2023/08/23 00:24:03;;;;;;;6.17;3.77;;;20.80;99.90;;;;;;5082265;28;20294;-65
2023/08/23 00:26:31;;;;;;;5.45;3.63;;;20.80;99.90;;;;;;5084985;28;20744;-66
2023/08/23 00:28:58;;;;;;;4.50;3.80;;;20.70;99.90;;;;;;5085139;28;20233;-67
2023/08/23 00:31:25;;;;;;;4.40;3.63;;;20.70;99.90;;;;;;5067387;28;20318;-66
2023/08/23 00:33:52;;;;;;;3.60;3.33;;;20.70;99.90;;;;;;5065433;28;20318;-66
2023/08/23 00:36:19;;;;;;;4.63;4.07;;;20.60;99.90;;;;;;5065567;28;20318;-66
2023/08/23 00:38:45;;;;;;;4.17;3.27;;;20.60;99.90;;;;;;5065282;28;20742;-66
2023/08/23 00:41:12;;;;;;;5.28;3.58;;;20.60;99.90;;;;;;5074607;28;20325;-66
2023/08/23 00:43:40;;;;;;;7.50;3.53;;;20.60;99.90;;;;;;5067620;28;20295;-66
2023/08/23 00:46:08;;;;;;;3.97;3.60;;;20.50;99.90;;;;;;5065104;28;20713;-66
2023/08/23 00:48:35;;;;;;;4.13;3.63;;;20.50;99.90;;;;;;5064969;28;20207;-66
2023/08/23 00:51:02;;;;;;;4.10;3.63;;;20.40;99.90;;;;;;5074083;28;20782;-66
2023/08/23 00:53:29;;;;;;;5.10;4.00;;;20.30;99.90;;;;;;5085166;28;20206;-66
2023/08/23 00:55:56;;;;;;;10.33;4.57;;;20.30;99.90;;;;;;5084252;28;20202;-66
2023/08/23 00:58:23;;;;;;;3.95;3.65;;;20.30;99.90;;;;;;5085066;28;20214;-66
2023/08/23 01:00:54;;;;;;;3.97;3.77;;;20.30;99.90;;;;;;5078725;28;20872;-65
2023/08/23 01:03:21;;;;;;;4.45;3.92;;;20.30;99.90;;;;;;5084979;28;20282;-66
2023/08/23 01:05:56;;;;;;;4.27;3.60;;;20.30;99.90;;;;;;5084366;28;20234;-66
2023/08/23 01:08:35;;;;;;;4.47;3.67;;;20.30;99.90;;;;;;5068598;28;20198;-66
2023/08/23 01:11:10;;;;;;;4.37;3.80;;;20.30;99.90;;;;;;5084849;28;20272;-65
2023/08/23 01:13:41;;;;;;;4.80;4.40;;;20.30;99.90;;;;;;5084557;28;20785;-66
2023/08/23 01:16:11;;;;;;;4.77;4.13;;;20.30;99.90;;;;;;5085045;28;20314;-66
2023/08/23 01:18:39;;;;;;;4.03;3.65;;;20.30;99.90;;;;;;5078687;28;20745;-66
2023/08/23 01:21:10;;;;;;;5.57;4.00;;;20.30;99.90;;;;;;5064219;28;20311;-66
2023/08/23 01:23:41;;;;;;;4.40;4.05;;;20.30;99.90;;;;;;5063807;28;20200;-66
2023/08/23 01:26:08;;;;;;;3.97;3.50;;;20.30;99.90;;;;;;5074875;28;20199;-65
2023/08/23 01:28:35;;;;;;;4.00;3.70;;;20.30;99.90;;;;;;5066313;28;20233;-66
2023/08/23 01:31:07;;;;;;;3.78;3.47;;;20.30;99.90;;;;;;5076393;28;20234;-65
2023/08/23 01:33:41;;;;;;;3.95;3.50;;;20.30;99.90;;;;;;5067939;28;20314;-65
2023/08/23 01:36:14;;;;;;;4.05;3.67;;;20.30;99.90;;;;;;5068062;28;20314;-65
2023/08/23 01:38:43;;;;;;;4.60;3.73;;;20.20;99.90;;;;;;5067770;28;20195;-65
2023/08/23 01:41:10;;;;;;;6.22;4.40;;;20.30;99.90;;;;;;5085673;28;20646;-65
2023/08/23 01:43:37;;;;;;;4.28;3.92;;;20.30;99.90;;;;;;5099363;28;20206;-65
2023/08/23 01:46:04;;;;;;;3.97;3.57;;;20.30;99.90;;;;;;5087892;28;20213;-65
2023/08/23 01:48:31;;;;;;;4.03;3.67;;;20.30;99.90;;;;;;5087539;28;20206;-65
2023/08/23 01:50:58;;;;;;;4.60;4.20;;;20.30;99.90;;;;;;5087688;28;20333;-65
2023/08/23 01:53:24;;;;;;;4.17;3.77;;;20.30;99.90;;;;;;5095595;28;20312;-65
2023/08/23 01:55:53;;;;;;;5.13;3.60;;;20.20;99.90;;;;;;5096756;28;20210;-65
2023/08/23 01:58:20;;;;;;;4.72;4.43;;;20.20;99.90;;;;;;5087580;28;20207;-65
2023/08/23 02:00:47;;;;;;;6.03;3.93;;;20.20;99.90;;;;;;5087234;28;20230;-65
2023/08/23 02:03:14;;;;;;;4.13;3.77;;;20.20;99.90;;;;;;5076584;28;20226;-65
2023/08/23 02:05:41;;;;;;;5.70;3.70;;;20.20;99.90;;;;;;5067197;28;20345;-65
2023/08/23 02:08:08;;;;;;;5.00;4.17;;;20.10;99.90;;;;;;5081236;28;20202;-65
2023/08/23 02:10:35;;;;;;;4.53;3.80;;;20.00;99.90;;;;;;5091463;28;20295;-65
2023/08/23 02:13:06;;;;;;;5.43;3.70;;;20.00;99.90;;;;;;5087853;28;20248;-66
2023/08/23 02:15:33;;;;;;;4.30;3.87;;;19.90;99.90;;;;;;5087828;28;20199;-66
2023/08/23 02:18:00;;;;;;;4.77;3.87;;;19.90;99.90;;;;;;5087554;28;20288;-65
2023/08/23 02:20:27;;;;;;;5.73;4.13;;;19.80;99.90;;;;;;5087370;28;20281;-66
2023/08/23 02:22:54;;;;;;;4.73;4.20;;;19.80;99.90;;;;;;5083194;28;20246;-65
2023/08/23 02:25:20;;;;;;;3.80;3.50;;;19.80;99.90;;;;;;5087648;28;20677;-65
2023/08/23 02:27:47;;;;;;;5.22;3.90;;;19.80;99.90;;;;;;5082526;28;20250;-65
2023/08/23 02:30:16;;;;;;;4.40;3.87;;;19.80;99.90;;;;;;5079492;28;20626;-65
2023/08/23 02:32:42;;;;;;;4.93;4.10;;;19.80;99.90;;;;;;5072112;28;20291;-66
2023/08/23 02:35:09;;;;;;;4.10;3.70;;;19.80;99.90;;;;;;5065723;28;20232;-65
2023/08/23 02:37:36;;;;;;;8.80;4.00;;;19.80;99.90;;;;;;5065086;28;20353;-65
2023/08/23 02:40:04;;;;;;;4.53;3.90;;;19.70;99.90;;;;;;5064957;28;20298;-66
2023/08/23 02:42:30;;;;;;;5.43;4.40;;;19.70;99.90;;;;;;5073397;28;20249;-65
2023/08/23 02:44:57;;;;;;;5.70;4.03;;;19.70;99.90;;;;;;5066128;28;20318;-65
2023/08/23 02:47:26;;;;;;;4.30;4.00;;;19.70;99.90;;;;;;5065501;28;20364;-65
2023/08/23 02:49:53;;;;;;;4.80;3.63;;;19.70;99.90;;;;;;5084466;28;20285;-65
2023/08/23 02:52:19;;;;;;;4.03;3.63;;;19.70;99.90;;;;;;5097329;28;20196;-66
2023/08/23 02:54:46;;;;;;;4.40;4.00;;;19.70;99.90;;;;;;5065867;28;20317;-65
2023/08/23 02:57:13;;;;;;;5.70;4.30;;;19.70;99.90;;;;;;5083768;28;20724;-66
2023/08/23 02:59:41;;;;;;;4.53;4.00;;;19.70;99.90;;;;;;5083922;28;20234;-66
2023/08/23 03:02:07;;;;;;;5.10;4.60;;;19.70;99.90;;;;;;5083192;28;20214;-66
2023/08/23 03:04:35;;;;;;;4.37;3.97;;;19.70;99.90;;;;;;5064735;28;20203;-66
2023/08/23 03:07:02;;;;;;;5.27;4.00;;;19.70;99.90;;;;;;5067040;28;20205;-66
2023/08/23 03:09:30;;;;;;;4.50;3.97;;;19.70;99.90;;;;;;5086420;28;20294;-66
2023/08/23 03:11:56;;;;;;;6.40;4.13;;;19.70;99.90;;;;;;5100952;28;20267;-66
2023/08/23 03:14:23;;;;;;;5.03;4.53;;;19.70;99.90;;;;;;5106183;28;20210;-66
2023/08/23 03:16:50;;;;;;;4.73;4.00;;;19.60;99.90;;;;;;5106683;28;20301;-66
2023/08/23 03:19:17;;;;;;;5.60;4.83;;;19.60;99.90;;;;;;5081795;28;20306;-66
2023/08/23 03:21:45;;;;;;;4.43;4.10;;;19.50;99.90;;;;;;5065764;28;20245;-66
2023/08/23 03:24:12;;;;;;;4.90;4.33;;;19.50;99.90;;;;;;5084215;28;20207;-66
2023/08/23 03:26:39;;;;;;;4.57;4.17;;;19.50;99.90;;;;;;5085635;28;20203;-66
2023/08/23 03:29:06;;;;;;;4.87;4.50;;;19.50;99.90;;;;;;5085971;28;20206;-66
2023/08/23 03:31:32;;;;;;;5.10;4.20;;;19.50;99.90;;;;;;5085824;28;20237;-66
2023/08/23 03:33:59;;;;;;;6.77;4.70;;;19.60;99.90;;;;;;5086084;28;20764;-68
2023/08/23 03:36:26;;;;;;;6.27;3.90;;;19.60;99.90;;;;;;5085900;28;20667;-66
2023/08/23 03:38:55;;;;;;;5.20;4.70;;;19.60;99.90;;;;;;5085790;28;20213;-66
2023/08/23 03:41:21;;;;;;;4.80;4.33;;;19.50;99.90;;;;;;5086190;28;20238;-66
2023/08/23 03:43:48;;;;;;;5.27;4.73;;;19.50;99.90;;;;;;5085639;28;20211;-66
2023/08/23 03:46:16;;;;;;;5.03;4.47;;;19.30;99.90;;;;;;5085711;28;20198;-66
2023/08/23 03:48:43;;;;;;;10.57;4.90;;;19.20;99.90;;;;;;5084705;28;20234;-66
2023/08/23 03:51:10;;;;;;;4.87;4.40;;;19.20;99.90;;;;;;5064134;28;20701;-66
2023/08/23 03:53:37;;;;;;;4.90;4.50;;;19.20;99.90;;;;;;5064795;28;20872;-66
2023/08/23 03:56:06;;;;;;;6.07;5.10;;;19.20;99.90;;;;;;5065482;28;20982;-66
2023/08/23 03:58:33;;;;;;;5.43;4.47;;;19.30;99.90;;;;;;5065216;28;20212;-66
2023/08/23 04:01:00;;;;;;;4.57;4.27;;;19.40;99.90;;;;;;5065092;28;20330;-66
2023/08/23 04:03:27;;;;;;;6.97;4.50;;;19.40;99.90;;;;;;5065197;28;20211;-66
2023/08/23 04:05:54;;;;;;;8.80;5.63;;;19.50;99.90;;;;;;5065002;28;20207;-66
2023/08/23 04:08:20;;;;;;;5.77;4.60;;;19.60;99.90;;;;;;5065017;28;20696;-66
2023/08/23 04:10:48;;;;;;;5.17;4.43;;;19.60;99.90;;;;;;5070971;28;20230;-66
2023/08/23 04:13:17;;;;;;;5.20;4.70;;;19.60;99.90;;;;;;5085740;28;20211;-66
2023/08/23 04:15:45;;;;;;;4.63;4.20;;;19.60;99.90;;;;;;5078081;28;20294;-66
2023/08/23 04:18:12;;;;;;;5.63;4.67;;;19.60;99.90;;;;;;5065557;28;20726;-66
2023/08/23 04:20:39;;;;;;;5.07;4.50;;;19.60;99.90;;;;;;5065540;28;20239;-66
2023/08/23 04:23:07;;;;;;;7.50;4.57;;;19.60;99.90;;;;;;5068404;28;20244;-66
2023/08/23 04:25:34;;;;;;;5.07;4.50;;;19.60;99.90;;;;;;5085488;28;20265;-66
2023/08/23 04:28:00;;;;;;;5.30;4.73;;;19.60;99.90;;;;;;5085547;28;20209;-66
2023/08/23 04:30:29;;;;;;;5.47;4.50;;;19.50;99.90;;;;;;5085114;28;20332;-66
2023/08/23 04:32:56;;;;;;;5.47;4.50;;;19.50;99.90;;;;;;5085187;28;20576;-66
2023/08/23 04:35:22;;;;;;;5.27;4.30;;;19.50;99.90;;;;;;5085611;28;20231;-66
2023/08/23 04:37:49;;;;;;;5.90;4.60;;;19.40;99.90;;;;;;5084907;28;20202;-66
2023/08/23 04:40:16;;;;;;;5.13;4.73;;;19.20;99.90;;;;;;5084889;28;20695;-66
2023/08/23 04:42:43;;;;;;;4.57;4.23;;;19.20;99.90;;;;;;5084953;28;20319;-66
2023/08/23 04:45:11;;;;;;;7.50;4.93;;;19.30;99.90;;;;;;5084807;28;21015;-66
2023/08/23 04:47:39;;;;;;;5.97;4.70;;;19.20;99.90;;;;;;5085075;28;20666;-66
2023/08/23 04:50:08;;;;;;;4.90;4.60;;;19.10;99.90;;;;;;5084901;28;20260;-66
2023/08/23 04:52:35;;;;;;;6.63;4.70;;;19.00;99.90;;;;;;5084478;28;20697;-66
2023/08/23 04:55:02;;;;;;;6.63;4.70;;;18.90;99.90;;;;;;5085045;28;20299;-66
2023/08/23 04:57:29;;;;;;;5.47;4.87;;;18.90;99.90;;;;;;5084952;28;20686;-66
2023/08/23 04:59:56;;;;;;;4.97;4.60;;;18.90;99.90;;;;;;5085081;28;20234;-66
2023/08/23 05:02:23;;;;;;;7.10;4.87;;;19.00;99.90;;;;;;5086824;28;20210;-66
2023/08/23 05:04:51;;;;;;;5.40;5.00;;;19.10;99.90;;;;;;5089278;28;20210;-66
2023/08/23 05:07:18;;;;;;;4.60;4.17;;;19.10;99.90;;;;;;5078536;28;20280;-66
2023/08/23 05:09:45;;;;;;;6.23;4.43;;;19.20;99.90;;;;;;5068827;28;20295;-66
2023/08/23 05:12:12;;;;;;;4.67;4.33;;;19.20;99.90;;;;;;5070047;28;20603;-66
2023/08/23 05:14:39;;;;;;;4.83;4.43;;;19.20;99.90;;;;;;5068582;28;20209;-66
2023/08/23 05:17:05;;;;;;;5.63;5.00;;;19.10;99.90;;;;;;5068937;28;20297;-66
2023/08/23 05:19:32;;;;;;;5.67;5.03;;;19.10;99.90;;;;;;5068578;28;20296;-66
2023/08/23 05:22:01;;;;;;;4.73;4.20;;;19.10;99.90;;;;;;5068395;28;20213;-66
2023/08/23 05:24:27;;;;;;;6.47;4.80;;;18.90;99.90;;;;;;5082735;28;20241;-66
2023/08/23 05:26:54;;;;;;;5.53;4.00;;;18.90;99.90;;;;;;5088559;28;20297;-66
2023/08/23 05:29:21;;;;;;;6.77;4.33;;;18.90;99.90;;;;;;5088661;28;20643;-66
2023/08/23 05:31:48;;;;;;;4.90;4.50;;;19.00;99.90;;;;;;5088931;28;20242;-66
2023/08/23 05:34:15;;;;;;;4.93;4.47;;;19.00;99.90;;;;;;5088835;28;20203;-66
2023/08/23 05:36:42;;;;;;;4.93;4.43;;;19.10;99.90;;;;;;5088131;28;20236;-66
2023/08/23 05:39:11;;;;;;;6.07;4.43;;;19.20;99.90;;;;;;5088147;28;20221;-66
2023/08/23 05:41:38;;;;;;;5.10;4.60;;;19.20;99.90;;;;;;5096882;28;20323;-66
2023/08/23 05:44:05;;;;;;;5.63;4.30;;;19.20;99.90;;;;;;5088391;28;20718;-66
2023/08/23 05:46:32;;;;;;;4.60;4.20;;;19.20;99.90;;;;;;5087727;28;20242;-66
2023/08/23 05:48:58;;;;;;;6.97;4.63;;;19.10;99.90;;;;;;5088207;28;20301;-67
2023/08/23 05:51:25;;;;;;;4.97;4.57;;;19.00;99.90;;;;;;5088120;28;20226;-66
2023/08/23 05:53:52;;;;;;;5.50;4.80;;;19.00;99.90;;;;;;5087833;28;20297;-66
2023/08/23 05:56:20;;;;;;;5.33;4.93;;;18.90;99.90;;;;;;5087651;28;20214;-66
2023/08/23 05:58:47;;;;;;;5.30;4.80;;;18.90;99.90;;;;;;5087893;28;20372;-66
2023/08/23 06:01:14;;;;;;;5.13;4.23;;;19.00;99.90;;;;;;5087614;28;20891;-66
2023/08/23 06:03:41;;;;;;;5.07;4.30;;;19.00;99.90;;;;;;5087820;28;20202;-66
2023/08/23 06:06:08;;;;;;;6.23;4.73;;;19.00;99.90;;;;;;5087980;28;20214;-66
2023/08/23 06:08:35;;;;;;;5.20;4.70;;;19.00;99.90;;;;;;5076849;28;20208;-66
2023/08/23 06:11:03;;;;;;;6.43;4.77;;;19.00;99.90;;;;;;5075238;28;20608;-66
2023/08/23 06:13:31;;;;;;;6.53;4.80;;;19.00;99.90;;;;;;5086601;28;20621;-66
2023/08/23 06:15:58;;;;;;;6.60;4.30;;;19.10;99.90;;;;;;5087709;28;20213;-66
2023/08/23 06:18:25;;;;;;;5.43;3.90;;;19.20;99.90;;;;;;5087199;28;20207;-66
2023/08/23 06:20:52;;;;;;;6.07;4.60;;;19.30;99.90;;;;;;5087219;28;20260;-66
2023/08/23 06:23:18;;;;;;;6.40;4.37;;;19.20;99.90;;;;;;5086749;28;20298;-66
2023/08/23 06:25:45;;;;;;;5.73;4.57;;;19.30;99.90;;;;;;5086939;28;20203;-66
2023/08/23 06:28:12;;;;;;;8.90;4.30;;;19.40;99.90;;;;;;5086989;28;20234;-67
2023/08/23 06:30:40;;;;;;;7.07;4.90;;;19.40;99.90;;;;;;5087099;28;20290;-66
2023/08/23 06:33:08;;;;;;;5.00;4.17;;;19.30;99.90;;;;;;5087610;28;20231;-66
2023/08/23 06:35:35;;;;;;;6.87;4.20;;;19.40;99.90;;;;;;5071109;28;20262;-66
2023/08/23 06:38:02;;;;;;;6.27;4.13;;;19.50;99.90;;;;;;5066717;28;20675;-66
2023/08/23 06:40:28;;;;;;;4.63;4.10;;;19.50;99.90;;;;;;5069562;28;20218;-66
2023/08/23 06:42:55;;;;;;;4.63;4.10;;;19.50;99.90;;;;;;5086825;28;20699;-66
2023/08/23 06:45:22;;;;;;;4.33;3.93;;;19.60;99.90;;;;;;5087296;28;20293;-66
2023/08/23 06:47:50;;;;;;;6.63;3.77;;;19.70;99.90;;;;;;5087257;28;20690;-66
2023/08/23 06:50:17;;;;;;;6.27;4.50;;;19.90;99.90;;;;;;5087165;28;20296;-66
2023/08/23 06:52:44;;;;;;;4.43;4.13;;;20.00;99.90;;;;;;5086317;28;20329;-66
2023/08/23 06:55:11;;;;;;;4.13;3.83;;;20.00;99.90;;;;;;5086475;28;20301;-66
2023/08/23 06:57:39;;;;;;;5.37;3.87;;;20.00;99.90;;;;;;5086216;28;21000;-66
2023/08/23 07:00:08;;;;;;;4.07;3.77;;;20.00;99.90;;;;;;5086437;28;20245;-66
2023/08/23 07:02:35;;;;;;;7.90;4.07;;;20.00;99.90;;;;;;5084408;28;20211;-66
2023/08/23 07:05:04;;;;;;;6.10;3.77;;;20.00;99.90;;;;;;5070180;28;20310;-66
2023/08/23 07:07:30;;;;;;;6.13;3.90;;;20.10;99.90;;;;;;5066242;28;20239;-66
2023/08/23 07:09:57;;;;;;;5.40;3.53;;;20.10;99.90;;;;;;5066467;28;20315;-66
2023/08/23 07:12:24;;;;;;;5.33;3.70;;;20.20;99.90;;;;;;5085909;28;20347;-66
2023/08/23 07:14:51;;;;;;;4.20;3.90;;;20.20;99.90;;;;;;5086304;28;20338;-66
2023/08/23 07:17:18;;;;;;;3.93;3.63;;;20.30;99.90;;;;;;5086644;28;20329;-66
2023/08/23 07:19:47;;;;;;;6.10;3.63;;;20.30;99.90;;;;;;5086024;28;20325;-66
2023/08/23 07:22:15;;;;;;;6.13;3.73;;;20.40;99.90;;;;;;5085709;28;20206;-66
2023/08/23 07:24:42;;;;;;;9.93;4.00;;;20.50;99.90;;;;;;5086154;28;20339;-66
2023/08/23 07:27:09;;;;;;;4.47;4.03;;;20.60;99.90;;;;;;5086275;28;20294;-66
2023/08/23 07:29:36;;;;;;;4.10;3.43;;;20.60;99.90;;;;;;5085899;28;20764;-66
2023/08/23 07:32:05;;;;;;;3.97;3.57;;;20.70;99.90;;;;;;5085826;28;20229;-66
2023/08/23 07:34:31;;;;;;;7.30;4.27;;;20.70;99.90;;;;;;5085483;28;20317;-66
2023/08/23 07:36:58;;;;;;;9.10;3.73;;;20.80;99.90;;;;;;5085897;28;20221;-66
2023/08/23 07:39:27;;;;;;;5.13;3.97;;;20.90;99.90;;;;;;5085583;28;20213;-66
2023/08/23 07:41:55;;;;;;;7.37;4.40;;;20.90;99.90;;;;;;5100817;28;20304;-66
2023/08/23 07:44:22;;;;;;;5.63;3.90;;;21.00;99.90;;;;;;5106120;28;20217;-66
2023/08/23 07:46:48;;;;;;;4.20;3.80;;;21.10;99.90;;;;;;5106470;28;20292;-66
2023/08/23 07:49:15;;;;;;;4.87;3.67;;;21.20;99.90;;;;;;5106446;28;20636;-66
2023/08/23 07:51:43;;;;;;;6.20;4.00;;;21.20;99.90;;;;;;5106202;28;20287;-66
2023/08/23 07:54:10;;;;;;;7.80;4.00;;;21.30;99.90;;;;;;5106088;28;20305;-66
2023/08/23 07:56:39;;;;;;;6.70;3.80;;;21.30;99.90;;;;;;5106058;28;20209;-66
2023/08/23 07:59:06;;;;;;;5.20;3.73;;;21.40;99.90;;;;;;5102583;28;20266;-66
2023/08/23 08:01:32;;;;;;;9.83;4.60;;;21.50;99.90;;;;;;5071650;28;20689;-66
2023/08/23 08:03:59;;;;;;;5.13;3.65;;;21.50;99.90;;;;;;5065106;28;20207;-66
2023/08/23 08:06:26;;;;;;;6.00;4.00;;;21.60;99.90;;;;;;5064787;28;20638;-66
2023/08/23 08:08:53;;;;;;;6.85;3.95;;;21.70;99.90;;;;;;5065022;28;20235;-66
2023/08/23 08:11:20;;;;;;;5.93;3.43;;;21.80;99.90;;;;;;5065152;28;20303;-66
2023/08/23 08:13:48;;;;;;;4.05;3.50;;;21.90;99.90;;;;;;5064861;28;20322;-66
2023/08/23 08:16:16;;;;;;;4.38;3.60;;;22.00;99.90;;;;;;5065218;28;20298;-67
2023/08/23 08:18:43;;;;;;;4.43;3.60;;;22.10;99.90;;;;;;5065397;28;20227;-66
2023/08/23 08:21:10;;;;;;;5.93;4.10;;;22.10;99.90;;;;;;5065096;28;20673;-66
2023/08/23 08:23:37;;;;;;;8.45;4.15;;;22.10;99.90;;;;;;5078291;28;20207;-66
2023/08/23 08:26:06;;;;;;;4.25;3.85;;;22.20;99.90;;;;;;5085389;28;20313;-66
2023/08/23 08:28:33;;;;;;;5.28;3.60;;;22.30;99.90;;;;;;5104402;28;20202;-66
2023/08/23 08:31:01;;;;;;;6.85;3.70;;;22.30;99.90;;;;;;5099580;28;20288;-66
2023/08/23 08:33:28;;;;;;;7.20;3.42;;;22.40;99.90;;;;;;5105735;28;20337;-66
2023/08/23 08:35:55;;;;;;;6.10;3.63;;;22.50;99.90;;;;;;5106045;28;20334;-66
2023/08/23 08:38:23;;;;;;;3.17;2.95;;;22.50;99.90;;;;;;5104626;28;20210;-66
2023/08/23 08:40:50;;;;;;;3.30;3.08;;;22.60;99.90;;;;;;5099269;28;20735;-66
2023/08/23 08:43:18;;;;;;;4.18;3.00;;;22.70;99.90;;;;;;5084820;28;20198;-66
2023/08/23 08:45:45;;;;;;;4.50;3.13;;;22.80;99.90;;;;;;5084610;28;20206;-67
2023/08/23 08:48:14;;;;;;;2.97;2.75;;;22.90;99.90;;;;;;5084548;28;20744;-66
2023/08/23 08:50:42;;;;;;;4.35;2.92;;;22.90;99.90;;;;;;5084980;28;20289;-67
2023/08/23 08:53:15;;;;;;;6.63;2.70;;;23.00;99.90;;;;;;5084470;28;20775;-66
2023/08/23 08:55:44;;;;;;;3.72;3.00;;;23.10;99.90;;;;;;5078809;28;20209;-66
2023/08/23 08:58:15;;;;;;;13.85;3.47;;;23.10;99.90;;;;;;5085193;28;20302;-67
2023/08/23 09:00:43;;;;;;;5.80;2.55;;;23.20;99.90;;;;;;5084398;28;20318;-66
2023/08/23 09:03:10;;;;;;;4.20;2.92;;;23.30;99.90;;;;;;5084821;28;20736;-66
2023/08/23 09:05:39;;;;;;;3.88;2.75;;;23.40;99.90;;;;;;5084440;28;21162;-66
2023/08/23 09:08:08;;;;;;;5.85;3.30;;;23.40;99.90;;;;;;5084474;28;20761;-66
2023/08/23 09:10:35;;;;;;;5.10;2.70;;;23.50;99.90;;;;;;5084805;28;20295;-67
2023/08/23 09:13:02;;;;;;;2.85;2.40;;;23.60;99.90;;;;;;5084444;28;20325;-66
2023/08/23 09:15:29;;;;;;;3.85;2.50;;;23.70;99.90;;;;;;5084521;28;20203;-66
2023/08/23 09:17:56;;;;;;;2.72;2.53;;;23.80;99.90;;;;;;5084636;28;20850;-66
2023/08/23 09:20:23;;;;;;;3.65;2.28;;;23.80;99.90;;;;;;5083975;28;20297;-66
2023/08/23 09:22:52;;;;;;;6.22;2.58;;;23.80;99.90;;;;;;5081177;28;20552;-66
2023/08/23 09:25:20;;;;;;;4.32;2.17;;;23.80;99.90;;;;;;5064011;28;20214;-66
2023/08/23 09:27:47;;;;;;;2.50;1.90;;;23.90;99.90;;;;;;5091691;28;20210;-66
2023/08/23 09:30:15;;;;;;;2.15;1.88;;;24.00;99.90;;;;;;5096212;28;20313;-66
2023/08/23 09:32:42;;;;;;;4.53;2.55;;;24.10;99.90;;;;;;5084133;28;20736;-66
2023/08/23 09:35:11;;;;;;;2.75;2.35;;;24.20;99.90;;;;;;5083598;28;20341;-67
2023/08/23 09:37:41;;;;;;;4.38;2.28;;;24.30;99.90;;;;;;5084111;28;20203;-67
2023/08/23 09:40:18;;;;;;;2.50;1.80;;;24.40;99.90;;;;;;5084333;28;20194;-67
2023/08/23 09:42:45;;;;;;;5.25;2.13;;;24.30;99.90;;;;;;5064820;28;20210;-68
2023/08/23 09:45:15;;;;;;;4.35;2.30;;;24.40;99.90;;;;;;5064432;28;20280;-68
2023/08/23 09:47:46;;;;;;;6.00;2.40;;;24.40;99.90;;;;;;5063982;28;20249;-68
2023/08/23 09:50:14;;;;;;;2.75;1.98;;;24.40;99.90;;;;;;5066936;28;20283;-67
2023/08/23 09:52:45;;;;;;;3.20;1.77;;;24.40;99.90;;;;;;5083241;28;20229;-68
2023/08/23 09:55:12;;;;;;;6.20;2.10;;;24.50;99.90;;;;;;5087504;28;20672;-67
2023/08/23 09:57:41;;;;;;;3.13;2.10;;;24.40;99.90;;;;;;5088005;28;20256;-68
2023/08/23 10:00:10;;;;;;;3.05;1.70;;;24.30;99.90;;;;;;5088051;28;20266;-67
2023/08/23 10:02:38;;;;;;;3.33;1.65;;;24.40;99.90;;;;;;5088417;28;20298;-68
2023/08/23 10:05:06;;;;;;;2.20;1.95;;;24.50;99.90;;;;;;5088058;28;20214;-67
2023/08/23 10:07:34;;;;;;;2.47;1.50;;;24.50;99.90;;;;;;5087421;28;20217;-67
2023/08/23 10:10:01;;;;;;;3.00;1.45;;;24.50;99.90;;;;;;5087632;28;20207;-67
2023/08/23 10:12:30;;;;;;;4.00;1.83;;;24.60;99.90;;;;;;5087619;28;20238;-67
2023/08/23 10:15:00;;;;;;;3.67;1.70;;;24.60;99.90;;;;;;5087531;28;20677;-68
2023/08/23 10:17:28;;;;;;;2.03;1.73;;;24.50;99.90;;;;;;5087718;28;20563;-67
2023/08/23 10:19:55;;;;;;;4.05;2.15;;;24.50;99.90;;;;;;5087623;28;20242;-67
2023/08/23 10:22:24;;;;;;;2.13;1.75;;;24.50;99.90;;;;;;5087266;28;20293;-66
2023/08/23 10:24:51;;;;;;;2.70;2.03;;;24.50;99.90;;;;;;5067245;28;20314;-66
2023/08/23 10:27:19;;;;;;;3.65;2.58;;;24.50;99.90;;;;;;5067321;28;20682;-67
2023/08/23 10:29:54;;;;;;;2.78;2.00;;;24.60;99.90;;;;;;5067212;28;20203;-67
2023/08/23 10:32:23;;;;;;;3.72;2.05;;;24.80;99.90;;;;;;5067609;28;20219;-67
2023/08/23 10:34:50;;;;;;;3.00;2.03;;;24.80;99.90;;;;;;5067679;28;20227;-67
2023/08/23 10:37:18;;;;;;;1.88;1.77;;;24.80;99.90;;;;;;5067395;28;20215;-67
2023/08/23 10:39:49;;;;;;;3.38;1.73;;;24.70;99.90;;;;;;5066635;28;20669;-67
2023/08/23 10:42:17;;;;;;;2.50;1.88;;;24.70;99.90;;;;;;5085309;28;20633;-67
2023/08/23 10:44:46;;;;;;;2.28;2.08;;;24.70;99.90;;;;;;5086617;28;20203;-66
2023/08/23 10:47:16;;;;;;;4.85;2.08;;;24.90;99.90;;;;;;5087053;28;20214;-67
2023/08/23 10:49:46;;;;;;;2.60;1.75;;;25.20;99.90;;;;;;5077983;28;20220;-67
2023/08/23 10:52:13;;;;;;;3.60;2.05;;;25.40;99.90;;;;;;5066483;28;20741;-67
2023/08/23 10:54:42;;;;;;;2.42;1.83;;;25.60;99.90;;;;;;5066213;28;20646;-67
2023/08/23 10:57:09;;;;;;;2.55;2.20;;;25.60;99.90;;;;;;5066745;28;20294;-67
2023/08/23 10:59:37;;;;;;;4.03;1.50;;;25.60;99.90;;;;;;5065789;28;20239;-67
2023/08/23 11:02:04;;;;;;;3.67;1.65;;;25.60;99.90;;;;;;5066629;28;20204;-67
2023/08/23 11:04:32;;;;;;;3.30;1.80;;;25.80;99.90;;;;;;5066319;28;20268;-67
2023/08/23 11:07:02;;;;;;;1.67;1.58;;;26.00;99.90;;;;;;5066477;28;20214;-67
2023/08/23 11:09:30;;;;;;;4.18;1.67;;;26.10;99.90;;;;;;5066670;28;20203;-67
2023/08/23 11:11:57;;;;;;;3.75;1.80;;;26.20;99.90;;;;;;5066204;28;20685;-67
2023/08/23 11:14:24;;;;;;;2.55;1.67;;;26.40;99.90;;;;;;5066186;28;20778;-67
2023/08/23 11:16:51;;;;;;;2.78;1.75;;;26.20;99.90;;;;;;5097274;28;21156;-67
2023/08/23 11:19:18;;;;;;;5.22;1.80;;;26.20;99.90;;;;;;5101188;28;20322;-67
2023/08/23 11:21:46;;;;;;;2.65;2.08;;;26.20;99.90;;;;;;5086252;28;20234;-67
2023/08/23 11:24:14;;;;;;;4.25;1.80;;;26.20;99.90;;;;;;5085985;28;20632;-67
2023/08/23 11:26:42;;;;;;;3.83;2.20;;;26.40;99.90;;;;;;5086132;28;20203;-66
2023/08/23 11:29:09;;;;;;;2.90;1.80;;;26.70;99.90;;;;;;5086305;28;20207;-67
2023/08/23 11:31:37;;;;;;;2.88;1.90;;;26.70;99.90;;;;;;5085528;28;20217;-67
2023/08/23 11:34:07;;;;;;;2.13;1.75;;;26.90;99.90;;;;;;5085573;28;20262;-68
2023/08/23 11:36:34;;;;;;;3.45;1.77;;;26.90;99.90;;;;;;5085658;28;20201;-68
2023/08/23 11:39:04;;;;;;;1.85;1.67;;;26.80;99.90;;;;;;5085797;28;20230;-67
2023/08/23 11:41:35;;;;;;;4.63;1.75;;;26.70;99.90;;;;;;5085360;28;20257;-68
2023/08/23 11:44:05;;;;;;;1.70;1.60;;;26.50;99.90;;;;;;5085570;28;20244;-68
2023/08/23 11:46:38;;;;;;;2.25;1.50;;;26.40;99.90;;;;;;5071811;28;20290;-68
2023/08/23 11:49:06;;;;;;;2.58;1.80;;;26.60;99.90;;;;;;5065756;28;20191;-67
2023/08/23 11:51:40;;;;;;;2.45;1.67;;;26.80;99.90;;;;;;5064834;28;20207;-68
2023/08/23 11:54:09;;;;;;;1.45;1.20;;;26.50;99.90;;;;;;5064918;28;20290;-67
2023/08/23 11:56:39;;;;;;;2.97;1.90;;;26.40;99.90;;;;;;5065363;28;20207;-68
2023/08/23 11:59:06;;;;;;;3.75;1.85;;;26.70;99.90;;;;;;5065298;28;20245;-67
2023/08/23 12:01:34;;;;;;;1.70;1.60;;;27.00;99.90;;;;;;5065229;28;20579;-65
2023/08/23 12:04:01;;;;;;;3.17;1.80;;;27.20;99.90;;;;;;5065544;28;20211;-66
2023/08/23 12:06:27;;;;;;;1.42;1.33;;;27.00;99.90;;;;;;5065122;28;20260;-65
2023/08/23 12:08:55;;;;;;;1.70;1.55;;;27.20;99.90;;;;;;5065182;28;20705;-65
2023/08/23 12:11:22;;;;;;;2.38;1.50;;;27.40;99.90;;;;;;5066467;28;20302;-65
2023/08/23 12:13:50;;;;;;;3.67;1.40;;;27.40;99.90;;;;;;5105652;28;20319;-65
2023/08/23 12:16:17;;;;;;;2.85;1.27;;;27.20;99.90;;;;;;5094185;28;20285;-70
2023/08/23 12:18:46;;;;;;;3.85;1.67;;;27.50;99.90;;;;;;5084842;28;20214;-68
2023/08/23 12:21:13;;;;;;;1.73;1.30;;;27.60;99.80;;;;;;5085741;28;20203;-66
2023/08/23 12:23:40;;;;;;;1.92;1.50;;;27.80;99.90;;;;;;5084808;28;20206;-66
2023/08/23 12:26:06;;;;;;;2.30;1.50;;;27.80;99.00;;;;;;5085543;28;20297;-67
2023/08/23 12:28:35;;;;;;;1.95;1.10;;;27.90;98.60;;;;;;5085280;28;20238;-66
2023/08/23 12:31:03;;;;;;;1.95;1.48;;;27.70;98.60;;;;;;5084941;28;20286;-66
2023/08/23 12:33:30;;;;;;;3.13;1.55;;;27.70;99.20;;;;;;5085049;28;20317;-66
2023/08/23 12:35:57;;;;;;;2.00;1.70;;;27.60;99.10;;;;;;5085089;28;20252;-67
2023/08/23 12:38:24;;;;;;;1.75;1.40;;;27.90;99.30;;;;;;5085106;28;20236;-67
2023/08/23 12:40:52;;;;;;;3.97;1.30;;;27.90;99.60;;;;;;5089394;28;20225;-68
2023/08/23 12:43:18;;;;;;;1.95;1.40;;;27.80;99.00;;;;;;5066877;28;20219;-67
2023/08/23 12:45:45;;;;;;;4.63;1.52;;;27.70;99.40;;;;;;5064595;28;20203;-67
2023/08/23 12:48:15;;;;;;;2.05;1.77;;;27.70;99.70;;;;;;5064634;28;20299;-67